Terminal Aerodrome Forecast
Issued by NWS

Home | Current Version | Previous Version | Graphics & Text | Print | Product List | Glossary On
Versions: 1 2 3 4 5 6 7 8 9 10 11 12 13 14 15 16 17 18 19
202
FTUS42 KMHX 040257 AAA
TAFOAJ
TAF AMD
KOAJ 040257Z 0403/0424 18012G19KT 5SM -SHRA SCT007 OVC020
      TEMPO 0403/0404 2SM -TSRA BKN007CB
     FM040600 20012KT 4SM SHRA OVC007
     FM041200 24008KT 3SM -RA OVC007
     FM041700 02009G15KT 3SM -RA OVC007
      AMD LTD TO CLD VIS AND WIND=

USA.gov is the U.S. government's official web portal to all federal, state and local government web resources and services.